sensor_id;sensor_type;location;lat;lon;timestamp;P1;durP1;ratioP1;P2;durP2;ratioP2
4148;SDS011;2088;51.032;7.082;2023-07-16T00:00:31;2.53;;;1.50;;
4148;SDS011;2088;51.032;7.082;2023-07-16T00:02:58;2.70;;;1.60;;
4148;SDS011;2088;51.032;7.082;2023-07-16T00:05:25;3.07;;;2.20;;
4148;SDS011;2088;51.032;7.082;2023-07-16T00:07:52;2.80;;;2.03;;
4148;SDS011;2088;51.032;7.082;2023-07-16T00:10:19;2.83;;;1.50;;
4148;SDS011;2088;51.032;7.082;2023-07-16T00:12:46;2.60;;;1.63;;
4148;SDS011;2088;51.032;7.082;2023-07-16T00:15:14;2.27;;;1.57;;
4148;SDS011;2088;51.032;7.082;2023-07-16T00:17:42;4.00;;;1.50;;
4148;SDS011;2088;51.032;7.082;2023-07-16T00:20:09;7.13;;;1.20;;
4148;SDS011;2088;51.032;7.082;2023-07-16T00:22:36;4.70;;;1.70;;
4148;SDS011;2088;51.032;7.082;2023-07-16T00:25:05;2.90;;;1.97;;
4148;SDS011;2088;51.032;7.082;2023-07-16T00:27:32;1.80;;;1.40;;
4148;SDS011;2088;51.032;7.082;2023-07-16T00:29:59;2.63;;;1.77;;
4148;SDS011;2088;51.032;7.082;2023-07-16T00:32:28;5.07;;;1.37;;
4148;SDS011;2088;51.032;7.082;2023-07-16T00:34:55;1.67;;;1.43;;
4148;SDS011;2088;51.032;7.082;2023-07-16T00:37:22;3.97;;;1.63;;
4148;SDS011;2088;51.032;7.082;2023-07-16T00:39:49;2.13;;;1.70;;
4148;SDS011;2088;51.032;7.082;2023-07-16T00:42:16;2.40;;;1.70;;
4148;SDS011;2088;51.032;7.082;2023-07-16T00:44:43;4.73;;;2.10;;
4148;SDS011;2088;51.032;7.082;2023-07-16T00:47:10;2.03;;;1.50;;
4148;SDS011;2088;51.032;7.082;2023-07-16T00:49:39;3.00;;;1.63;;
4148;SDS011;2088;51.032;7.082;2023-07-16T00:52:07;3.57;;;2.33;;
4148;SDS011;2088;51.032;7.082;2023-07-16T00:54:34;3.93;;;1.40;;
4148;SDS011;2088;51.032;7.082;2023-07-16T00:57:02;2.83;;;1.67;;
4148;SDS011;2088;51.032;7.082;2023-07-16T00:59:29;1.80;;;1.37;;
4148;SDS011;2088;51.032;7.082;2023-07-16T01:01:56;1.60;;;1.40;;
4148;SDS011;2088;51.032;7.082;2023-07-16T01:04:23;3.20;;;1.50;;
4148;SDS011;2088;51.032;7.082;2023-07-16T01:06:53;2.53;;;1.63;;
4148;SDS011;2088;51.032;7.082;2023-07-16T01:09:22;3.57;;;1.63;;
4148;SDS011;2088;51.032;7.082;2023-07-16T01:11:49;5.73;;;2.23;;
4148;SDS011;2088;51.032;7.082;2023-07-16T01:14:17;3.30;;;1.40;;
4148;SDS011;2088;51.032;7.082;2023-07-16T01:16:44;2.50;;;1.50;;
4148;SDS011;2088;51.032;7.082;2023-07-16T01:19:12;3.23;;;1.50;;
4148;SDS011;2088;51.032;7.082;2023-07-16T01:21:41;5.67;;;1.87;;
4148;SDS011;2088;51.032;7.082;2023-07-16T01:24:17;3.30;;;1.53;;
4148;SDS011;2088;51.032;7.082;2023-07-16T01:26:57;5.13;;;1.50;;
4148;SDS011;2088;51.032;7.082;2023-07-16T01:29:33;3.50;;;1.87;;
4148;SDS011;2088;51.032;7.082;2023-07-16T01:32:03;2.50;;;1.37;;
4148;SDS011;2088;51.032;7.082;2023-07-16T01:34:31;4.20;;;1.60;;
4148;SDS011;2088;51.032;7.082;2023-07-16T01:36:59;3.10;;;1.70;;
4148;SDS011;2088;51.032;7.082;2023-07-16T01:39:26;3.87;;;1.40;;
4148;SDS011;2088;51.032;7.082;2023-07-16T01:41:53;4.70;;;2.10;;
4148;SDS011;2088;51.032;7.082;2023-07-16T01:44:21;1.93;;;1.30;;
4148;SDS011;2088;51.032;7.082;2023-07-16T01:46:53;4.50;;;1.20;;
4148;SDS011;2088;51.032;7.082;2023-07-16T01:49:25;3.57;;;1.50;;
4148;SDS011;2088;51.032;7.082;2023-07-16T01:51:52;1.60;;;1.37;;
4148;SDS011;2088;51.032;7.082;2023-07-16T01:54:19;2.03;;;1.57;;
4148;SDS011;2088;51.032;7.082;2023-07-16T01:56:46;1.70;;;1.60;;
4148;SDS011;2088;51.032;7.082;2023-07-16T01:59:14;2.13;;;1.30;;
4148;SDS011;2088;51.032;7.082;2023-07-16T02:01:41;2.70;;;1.33;;
4148;SDS011;2088;51.032;7.082;2023-07-16T02:04:09;2.73;;;1.37;;
4148;SDS011;2088;51.032;7.082;2023-07-16T02:06:36;4.70;;;1.30;;
4148;SDS011;2088;51.032;7.082;2023-07-16T02:09:03;1.80;;;1.20;;
4148;SDS011;2088;51.032;7.082;2023-07-16T02:11:30;2.17;;;1.20;;
4148;SDS011;2088;51.032;7.082;2023-07-16T02:13:57;3.20;;;1.50;;
4148;SDS011;2088;51.032;7.082;2023-07-16T02:16:25;12.70;;;1.40;;
4148;SDS011;2088;51.032;7.082;2023-07-16T02:18:52;3.13;;;1.50;;
4148;SDS011;2088;51.032;7.082;2023-07-16T02:21:20;1.50;;;1.20;;
4148;SDS011;2088;51.032;7.082;2023-07-16T02:23:47;3.90;;;1.70;;
4148;SDS011;2088;51.032;7.082;2023-07-16T02:26:14;4.37;;;1.83;;
4148;SDS011;2088;51.032;7.082;2023-07-16T02:28:41;4.30;;;1.70;;
4148;SDS011;2088;51.032;7.082;2023-07-16T02:31:08;1.67;;;1.27;;
4148;SDS011;2088;51.032;7.082;2023-07-16T02:33:35;2.57;;;1.50;;
4148;SDS011;2088;51.032;7.082;2023-07-16T02:36:03;2.63;;;1.80;;
4148;SDS011;2088;51.032;7.082;2023-07-16T02:38:32;3.10;;;1.73;;
4148;SDS011;2088;51.032;7.082;2023-07-16T02:40:59;1.60;;;1.27;;
4148;SDS011;2088;51.032;7.082;2023-07-16T02:43:26;6.20;;;1.40;;
4148;SDS011;2088;51.032;7.082;2023-07-16T02:45:53;2.57;;;1.57;;
4148;SDS011;2088;51.032;7.082;2023-07-16T02:48:20;1.60;;;1.10;;
4148;SDS011;2088;51.032;7.082;2023-07-16T02:50:47;5.13;;;1.80;;
4148;SDS011;2088;51.032;7.082;2023-07-16T02:53:15;3.00;;;1.50;;
4148;SDS011;2088;51.032;7.082;2023-07-16T02:55:44;6.23;;;1.70;;
4148;SDS011;2088;51.032;7.082;2023-07-16T02:58:12;1.50;;;1.30;;
4148;SDS011;2088;51.032;7.082;2023-07-16T03:00:39;3.33;;;1.40;;
4148;SDS011;2088;51.032;7.082;2023-07-16T03:03:06;4.03;;;1.63;;
4148;SDS011;2088;51.032;7.082;2023-07-16T03:05:33;5.30;;;1.10;;
4148;SDS011;2088;51.032;7.082;2023-07-16T03:08:00;3.97;;;1.67;;
4148;SDS011;2088;51.032;7.082;2023-07-16T03:10:27;2.70;;;1.43;;
4148;SDS011;2088;51.032;7.082;2023-07-16T03:12:56;5.57;;;1.30;;
4148;SDS011;2088;51.032;7.082;2023-07-16T03:15:23;1.73;;;1.57;;
4148;SDS011;2088;51.032;7.082;2023-07-16T03:17:50;5.70;;;1.70;;
4148;SDS011;2088;51.032;7.082;2023-07-16T03:20:17;6.37;;;1.77;;
4148;SDS011;2088;51.032;7.082;2023-07-16T03:22:44;3.10;;;1.60;;
4148;SDS011;2088;51.032;7.082;2023-07-16T03:25:11;3.97;;;1.50;;
4148;SDS011;2088;51.032;7.082;2023-07-16T03:27:38;2.53;;;1.83;;
4148;SDS011;2088;51.032;7.082;2023-07-16T03:30:07;5.37;;;1.50;;
4148;SDS011;2088;51.032;7.082;2023-07-16T03:32:34;1.97;;;1.77;;
4148;SDS011;2088;51.032;7.082;2023-07-16T03:35:02;1.30;;;1.13;;
4148;SDS011;2088;51.032;7.082;2023-07-16T03:37:29;1.83;;;1.27;;
4148;SDS011;2088;51.032;7.082;2023-07-16T03:39:56;2.70;;;1.37;;
4148;SDS011;2088;51.032;7.082;2023-07-16T03:42:23;3.90;;;2.00;;
4148;SDS011;2088;51.032;7.082;2023-07-16T03:44:50;7.30;;;1.77;;
4148;SDS011;2088;51.032;7.082;2023-07-16T03:47:19;6.20;;;1.80;;
4148;SDS011;2088;51.032;7.082;2023-07-16T03:49:46;3.70;;;1.43;;
4148;SDS011;2088;51.032;7.082;2023-07-16T03:52:13;6.40;;;1.60;;
4148;SDS011;2088;51.032;7.082;2023-07-16T03:54:40;4.00;;;1.53;;
4148;SDS011;2088;51.032;7.082;2023-07-16T03:57:07;3.00;;;1.60;;
4148;SDS011;2088;51.032;7.082;2023-07-16T03:59:34;2.47;;;1.60;;
4148;SDS011;2088;51.032;7.082;2023-07-16T04:02:01;4.40;;;1.30;;
4148;SDS011;2088;51.032;7.082;2023-07-16T04:04:30;2.50;;;1.47;;
4148;SDS011;2088;51.032;7.082;2023-07-16T04:06:57;2.10;;;1.50;;
4148;SDS011;2088;51.032;7.082;2023-07-16T04:09:24;4.90;;;1.63;;
4148;SDS011;2088;51.032;7.082;2023-07-16T04:11:51;3.10;;;2.30;;
4148;SDS011;2088;51.032;7.082;2023-07-16T04:14:18;1.67;;;1.47;;
4148;SDS011;2088;51.032;7.082;2023-07-16T04:16:45;1.60;;;1.50;;
4148;SDS011;2088;51.032;7.082;2023-07-16T04:19:12;6.20;;;1.73;;
4148;SDS011;2088;51.032;7.082;2023-07-16T04:21:41;2.27;;;1.77;;
4148;SDS011;2088;51.032;7.082;2023-07-16T04:24:08;2.27;;;1.53;;
4148;SDS011;2088;51.032;7.082;2023-07-16T04:26:35;1.83;;;1.70;;
4148;SDS011;2088;51.032;7.082;2023-07-16T04:29:02;4.57;;;1.43;;
4148;SDS011;2088;51.032;7.082;2023-07-16T04:31:29;3.43;;;1.83;;
4148;SDS011;2088;51.032;7.082;2023-07-16T04:33:56;3.07;;;1.63;;
4148;SDS011;2088;51.032;7.082;2023-07-16T04:36:23;5.00;;;2.60;;
4148;SDS011;2088;51.032;7.082;2023-07-16T04:38:52;4.30;;;2.10;;
4148;SDS011;2088;51.032;7.082;2023-07-16T04:41:19;4.00;;;1.57;;
4148;SDS011;2088;51.032;7.082;2023-07-16T04:43:47;4.53;;;2.50;;
4148;SDS011;2088;51.032;7.082;2023-07-16T04:46:14;5.93;;;1.43;;
4148;SDS011;2088;51.032;7.082;2023-07-16T04:48:41;3.90;;;1.67;;
4148;SDS011;2088;51.032;7.082;2023-07-16T04:51:08;6.70;;;2.50;;
4148;SDS011;2088;51.032;7.082;2023-07-16T04:53:35;3.20;;;1.57;;
4148;SDS011;2088;51.032;7.082;2023-07-16T04:56:04;6.83;;;3.13;;
4148;SDS011;2088;51.032;7.082;2023-07-16T04:58:35;2.07;;;1.70;;
4148;SDS011;2088;51.032;7.082;2023-07-16T05:01:02;3.87;;;1.67;;
4148;SDS011;2088;51.032;7.082;2023-07-16T05:03:29;3.80;;;1.90;;
4148;SDS011;2088;51.032;7.082;2023-07-16T05:05:56;4.70;;;2.13;;
4148;SDS011;2088;51.032;7.082;2023-07-16T05:08:23;3.30;;;1.57;;
4148;SDS011;2088;51.032;7.082;2023-07-16T05:10:50;3.67;;;2.07;;
4148;SDS011;2088;51.032;7.082;2023-07-16T05:13:19;2.30;;;1.73;;
4148;SDS011;2088;51.032;7.082;2023-07-16T05:15:46;4.10;;;2.07;;
4148;SDS011;2088;51.032;7.082;2023-07-16T05:18:13;3.30;;;1.80;;
4148;SDS011;2088;51.032;7.082;2023-07-16T05:20:40;11.60;;;2.60;;
4148;SDS011;2088;51.032;7.082;2023-07-16T05:23:09;7.27;;;1.93;;
4148;SDS011;2088;51.032;7.082;2023-07-16T05:25:36;3.70;;;2.13;;
4148;SDS011;2088;51.032;7.082;2023-07-16T05:28:03;10.10;;;1.70;;
4148;SDS011;2088;51.032;7.082;2023-07-16T05:30:32;5.07;;;1.70;;
4148;SDS011;2088;51.032;7.082;2023-07-16T05:32:59;2.73;;;1.83;;
4148;SDS011;2088;51.032;7.082;2023-07-16T05:35:26;6.00;;;1.63;;
4148;SDS011;2088;51.032;7.082;2023-07-16T05:37:53;5.53;;;2.17;;
4148;SDS011;2088;51.032;7.082;2023-07-16T05:40:20;4.00;;;2.10;;
4148;SDS011;2088;51.032;7.082;2023-07-16T05:42:47;3.13;;;2.10;;
4148;SDS011;2088;51.032;7.082;2023-07-16T05:45:14;3.70;;;1.50;;
4148;SDS011;2088;51.032;7.082;2023-07-16T05:47:43;10.03;;;2.00;;
4148;SDS011;2088;51.032;7.082;2023-07-16T05:50:10;3.33;;;1.73;;
4148;SDS011;2088;51.032;7.082;2023-07-16T05:52:37;4.80;;;2.10;;
4148;SDS011;2088;51.032;7.082;2023-07-16T05:55:04;8.93;;;1.70;;
4148;SDS011;2088;51.032;7.082;2023-07-16T05:57:31;6.23;;;1.80;;
4148;SDS011;2088;51.032;7.082;2023-07-16T05:59:58;3.33;;;2.27;;
4148;SDS011;2088;51.032;7.082;2023-07-16T06:02:25;5.80;;;2.63;;
4148;SDS011;2088;51.032;7.082;2023-07-16T06:04:54;4.20;;;2.63;;
4148;SDS011;2088;51.032;7.082;2023-07-16T06:07:21;2.13;;;1.87;;
4148;SDS011;2088;51.032;7.082;2023-07-16T06:09:48;2.43;;;2.00;;
4148;SDS011;2088;51.032;7.082;2023-07-16T06:12:15;6.87;;;2.30;;
4148;SDS011;2088;51.032;7.082;2023-07-16T06:14:42;5.20;;;2.23;;
4148;SDS011;2088;51.032;7.082;2023-07-16T06:17:09;19.07;;;2.53;;
4148;SDS011;2088;51.032;7.082;2023-07-16T06:19:36;6.00;;;2.83;;
4148;SDS011;2088;51.032;7.082;2023-07-16T06:22:05;4.97;;;2.30;;
4148;SDS011;2088;51.032;7.082;2023-07-16T06:24:32;5.73;;;2.83;;
4148;SDS011;2088;51.032;7.082;2023-07-16T06:26:59;3.87;;;2.13;;
4148;SDS011;2088;51.032;7.082;2023-07-16T06:29:26;6.13;;;2.93;;
4148;SDS011;2088;51.032;7.082;2023-07-16T06:31:56;4.30;;;2.30;;
4148;SDS011;2088;51.032;7.082;2023-07-16T06:34:23;8.50;;;3.20;;
4148;SDS011;2088;51.032;7.082;2023-07-16T06:36:51;4.70;;;2.70;;
4148;SDS011;2088;51.032;7.082;2023-07-16T06:39:19;3.97;;;3.10;;
4148;SDS011;2088;51.032;7.082;2023-07-16T06:41:46;9.60;;;2.17;;
4148;SDS011;2088;51.032;7.082;2023-07-16T06:44:15;7.67;;;2.70;;
4148;SDS011;2088;51.032;7.082;2023-07-16T06:46:42;4.93;;;3.87;;
4148;SDS011;2088;51.032;7.082;2023-07-16T06:49:09;6.10;;;3.07;;
4148;SDS011;2088;51.032;7.082;2023-07-16T06:51:36;5.40;;;3.07;;
4148;SDS011;2088;51.032;7.082;2023-07-16T06:54:03;3.03;;;2.73;;
4148;SDS011;2088;51.032;7.082;2023-07-16T06:56:31;5.83;;;3.40;;
4148;SDS011;2088;51.032;7.082;2023-07-16T06:58:58;4.80;;;2.80;;
4148;SDS011;2088;51.032;7.082;2023-07-16T07:01:25;3.30;;;2.47;;
4148;SDS011;2088;51.032;7.082;2023-07-16T07:03:53;7.40;;;2.63;;
4148;SDS011;2088;51.032;7.082;2023-07-16T07:06:20;5.13;;;2.80;;
4148;SDS011;2088;51.032;7.082;2023-07-16T07:08:47;6.50;;;3.10;;
4148;SDS011;2088;51.032;7.082;2023-07-16T07:11:14;7.53;;;2.60;;
4148;SDS011;2088;51.032;7.082;2023-07-16T07:13:43;3.30;;;2.47;;
4148;SDS011;2088;51.032;7.082;2023-07-16T07:16:10;4.87;;;3.20;;
4148;SDS011;2088;51.032;7.082;2023-07-16T07:18:37;4.30;;;2.70;;
4148;SDS011;2088;51.032;7.082;2023-07-16T07:21:04;5.97;;;2.87;;
4148;SDS011;2088;51.032;7.082;2023-07-16T07:23:31;6.10;;;2.70;;
4148;SDS011;2088;51.032;7.082;2023-07-16T07:25:58;14.00;;;4.40;;
4148;SDS011;2088;51.032;7.082;2023-07-16T07:28:26;5.03;;;2.87;;
4148;SDS011;2088;51.032;7.082;2023-07-16T07:30:55;8.50;;;3.80;;
4148;SDS011;2088;51.032;7.082;2023-07-16T07:33:22;4.30;;;2.80;;
4148;SDS011;2088;51.032;7.082;2023-07-16T07:35:52;5.70;;;2.83;;
4148;SDS011;2088;51.032;7.082;2023-07-16T07:38:20;11.80;;;3.33;;
4148;SDS011;2088;51.032;7.082;2023-07-16T07:40:47;5.10;;;2.90;;
4148;SDS011;2088;51.032;7.082;2023-07-16T07:43:14;3.80;;;2.63;;
4148;SDS011;2088;51.032;7.082;2023-07-16T07:45:41;3.00;;;2.10;;
4148;SDS011;2088;51.032;7.082;2023-07-16T07:48:10;6.70;;;2.57;;
4148;SDS011;2088;51.032;7.082;2023-07-16T07:50:37;5.13;;;2.53;;
4148;SDS011;2088;51.032;7.082;2023-07-16T07:53:04;6.47;;;3.10;;
4148;SDS011;2088;51.032;7.082;2023-07-16T07:55:32;11.25;;;2.72;;
4148;SDS011;2088;51.032;7.082;2023-07-16T07:58:00;5.50;;;3.30;;
4148;SDS011;2088;51.032;7.082;2023-07-16T08:00:27;5.17;;;3.10;;
4148;SDS011;2088;51.032;7.082;2023-07-16T08:02:54;3.90;;;2.97;;
4148;SDS011;2088;51.032;7.082;2023-07-16T08:05:23;4.20;;;2.63;;
4148;SDS011;2088;51.032;7.082;2023-07-16T08:07:50;9.90;;;3.10;;
4148;SDS011;2088;51.032;7.082;2023-07-16T08:10:18;4.63;;;2.97;;
4148;SDS011;2088;51.032;7.082;2023-07-16T08:12:45;5.93;;;2.30;;
4148;SDS011;2088;51.032;7.082;2023-07-16T08:15:12;8.33;;;3.13;;
4148;SDS011;2088;51.032;7.082;2023-07-16T08:17:40;3.33;;;2.50;;
4148;SDS011;2088;51.032;7.082;2023-07-16T08:20:07;5.30;;;2.30;;
4148;SDS011;2088;51.032;7.082;2023-07-16T08:22:36;6.60;;;3.03;;
4148;SDS011;2088;51.032;7.082;2023-07-16T08:25:03;6.33;;;3.00;;
4148;SDS011;2088;51.032;7.082;2023-07-16T08:27:31;4.70;;;2.67;;
4148;SDS011;2088;51.032;7.082;2023-07-16T08:29:58;8.40;;;3.30;;
4148;SDS011;2088;51.032;7.082;2023-07-16T08:32:25;9.73;;;2.57;;
4148;SDS011;2088;51.032;7.082;2023-07-16T08:34:52;5.60;;;2.50;;
4148;SDS011;2088;51.032;7.082;2023-07-16T08:37:19;6.87;;;2.70;;
4148;SDS011;2088;51.032;7.082;2023-07-16T08:39:48;3.37;;;2.63;;
4148;SDS011;2088;51.032;7.082;2023-07-16T08:42:17;5.53;;;2.47;;
4148;SDS011;2088;51.032;7.082;2023-07-16T08:44:44;6.73;;;3.37;;
4148;SDS011;2088;51.032;7.082;2023-07-16T08:47:11;5.20;;;3.47;;
4148;SDS011;2088;51.032;7.082;2023-07-16T08:49:39;6.20;;;2.73;;
4148;SDS011;2088;51.032;7.082;2023-07-16T08:52:06;5.00;;;3.10;;
4148;SDS011;2088;51.032;7.082;2023-07-16T08:54:34;6.00;;;3.23;;
4148;SDS011;2088;51.032;7.082;2023-07-16T08:57:03;6.37;;;3.27;;
4148;SDS011;2088;51.032;7.082;2023-07-16T08:59:30;3.30;;;2.60;;
4148;SDS011;2088;51.032;7.082;2023-07-16T09:01:57;8.03;;;3.20;;
4148;SDS011;2088;51.032;7.082;2023-07-16T09:04:24;3.90;;;2.90;;
4148;SDS011;2088;51.032;7.082;2023-07-16T09:06:52;6.43;;;2.70;;
4148;SDS011;2088;51.032;7.082;2023-07-16T09:09:19;3.83;;;3.30;;
4148;SDS011;2088;51.032;7.082;2023-07-16T09:11:47;11.40;;;2.60;;
4148;SDS011;2088;51.032;7.082;2023-07-16T09:14:17;7.90;;;3.60;;
4148;SDS011;2088;51.032;7.082;2023-07-16T09:16:47;5.83;;;2.13;;
4148;SDS011;2088;51.032;7.082;2023-07-16T09:19:14;9.63;;;3.37;;
4148;SDS011;2088;51.032;7.082;2023-07-16T09:21:45;4.40;;;2.20;;
4148;SDS011;2088;51.032;7.082;2023-07-16T09:24:12;2.83;;;2.40;;
4148;SDS011;2088;51.032;7.082;2023-07-16T09:26:47;4.00;;;2.90;;
4148;SDS011;2088;51.032;7.082;2023-07-16T09:29:14;6.33;;;2.70;;
4148;SDS011;2088;51.032;7.082;2023-07-16T09:31:52;3.70;;;2.37;;
4148;SDS011;2088;51.032;7.082;2023-07-16T09:34:19;4.70;;;2.67;;
4148;SDS011;2088;51.032;7.082;2023-07-16T09:36:47;3.93;;;2.30;;
4148;SDS011;2088;51.032;7.082;2023-07-16T09:39:15;5.50;;;2.30;;
4148;SDS011;2088;51.032;7.082;2023-07-16T09:41:43;4.63;;;1.80;;
4148;SDS011;2088;51.032;7.082;2023-07-16T09:44:11;7.40;;;3.80;;
4148;SDS011;2088;51.032;7.082;2023-07-16T09:46:38;3.20;;;2.33;;
4148;SDS011;2088;51.032;7.082;2023-07-16T09:49:07;3.10;;;2.03;;
4148;SDS011;2088;51.032;7.082;2023-07-16T09:51:35;4.27;;;1.90;;
4148;SDS011;2088;51.032;7.082;2023-07-16T09:54:03;3.20;;;1.80;;
4148;SDS011;2088;51.032;7.082;2023-07-16T09:56:31;4.23;;;2.77;;
4148;SDS011;2088;51.032;7.082;2023-07-16T09:59:00;3.47;;;1.97;;
4148;SDS011;2088;51.032;7.082;2023-07-16T10:01:28;6.27;;;2.13;;
4148;SDS011;2088;51.032;7.082;2023-07-16T10:03:55;4.10;;;2.40;;
4148;SDS011;2088;51.032;7.082;2023-07-16T10:06:24;2.80;;;1.93;;
4148;SDS011;2088;51.032;7.082;2023-07-16T10:08:51;5.27;;;2.70;;
4148;SDS011;2088;51.032;7.082;2023-07-16T10:11:18;3.90;;;2.03;;
4148;SDS011;2088;51.032;7.082;2023-07-16T10:13:49;3.40;;;1.93;;
4148;SDS011;2088;51.032;7.082;2023-07-16T10:16:19;5.10;;;2.57;;
4148;SDS011;2088;51.032;7.082;2023-07-16T10:18:50;4.50;;;2.00;;
4148;SDS011;2088;51.032;7.082;2023-07-16T10:21:22;2.90;;;1.90;;
4148;SDS011;2088;51.032;7.082;2023-07-16T10:23:56;6.17;;;2.13;;
4148;SDS011;2088;51.032;7.082;2023-07-16T10:26:26;5.53;;;2.33;;
4148;SDS011;2088;51.032;7.082;2023-07-16T10:28:53;7.60;;;2.13;;
4148;SDS011;2088;51.032;7.082;2023-07-16T10:31:21;3.40;;;1.80;;
4148;SDS011;2088;51.032;7.082;2023-07-16T10:34:00;17.17;;;1.83;;
4148;SDS011;2088;51.032;7.082;2023-07-16T10:36:29;4.37;;;2.20;;
4148;SDS011;2088;51.032;7.082;2023-07-16T10:39:02;5.20;;;2.13;;
4148;SDS011;2088;51.032;7.082;2023-07-16T10:41:30;7.63;;;2.03;;
4148;SDS011;2088;51.032;7.082;2023-07-16T10:43:57;3.80;;;2.30;;
4148;SDS011;2088;51.032;7.082;2023-07-16T10:46:25;3.53;;;2.10;;
4148;SDS011;2088;51.032;7.082;2023-07-16T10:48:52;3.43;;;2.43;;
4148;SDS011;2088;51.032;7.082;2023-07-16T10:51:24;4.50;;;2.30;;
4148;SDS011;2088;51.032;7.082;2023-07-16T10:53:54;4.63;;;2.67;;
4148;SDS011;2088;51.032;7.082;2023-07-16T10:56:23;2.47;;;1.93;;
4148;SDS011;2088;51.032;7.082;2023-07-16T10:58:50;2.43;;;2.10;;
4148;SDS011;2088;51.032;7.082;2023-07-16T11:01:17;2.60;;;2.00;;
4148;SDS011;2088;51.032;7.082;2023-07-16T11:03:45;3.90;;;2.27;;
4148;SDS011;2088;51.032;7.082;2023-07-16T11:06:12;4.53;;;2.00;;
4148;SDS011;2088;51.032;7.082;2023-07-16T11:08:40;5.60;;;2.20;;
4148;SDS011;2088;51.032;7.082;2023-07-16T11:11:08;4.17;;;2.33;;
4148;SDS011;2088;51.032;7.082;2023-07-16T11:13:36;5.83;;;2.50;;
4148;SDS011;2088;51.032;7.082;2023-07-16T11:16:06;3.90;;;2.23;;
4148;SDS011;2088;51.032;7.082;2023-07-16T11:18:34;2.63;;;1.83;;
4148;SDS011;2088;51.032;7.082;2023-07-16T11:21:01;3.07;;;2.63;;
4148;SDS011;2088;51.032;7.082;2023-07-16T11:23:28;5.33;;;2.60;;
4148;SDS011;2088;51.032;7.082;2023-07-16T11:25:55;3.00;;;1.87;;
4148;SDS011;2088;51.032;7.082;2023-07-16T11:28:22;3.30;;;1.63;;
4148;SDS011;2088;51.032;7.082;2023-07-16T11:30:51;4.50;;;2.07;;
4148;SDS011;2088;51.032;7.082;2023-07-16T11:33:18;2.83;;;2.00;;
4148;SDS011;2088;51.032;7.082;2023-07-16T11:35:45;5.50;;;2.00;;
4148;SDS011;2088;51.032;7.082;2023-07-16T11:38:14;3.20;;;2.23;;
4148;SDS011;2088;51.032;7.082;2023-07-16T11:40:41;6.10;;;2.33;;
4148;SDS011;2088;51.032;7.082;2023-07-16T11:43:09;7.03;;;2.53;;
4148;SDS011;2088;51.032;7.082;2023-07-16T11:45:36;4.80;;;2.93;;
4148;SDS011;2088;51.032;7.082;2023-07-16T11:48:05;4.27;;;2.03;;
4148;SDS011;2088;51.032;7.082;2023-07-16T11:50:32;5.67;;;2.37;;
4148;SDS011;2088;51.032;7.082;2023-07-16T11:53:00;5.17;;;2.33;;
4148;SDS011;2088;51.032;7.082;2023-07-16T11:55:27;3.23;;;2.00;;
4148;SDS011;2088;51.032;7.082;2023-07-16T11:57:54;3.80;;;1.80;;
4148;SDS011;2088;51.032;7.082;2023-07-16T12:00:24;5.10;;;2.33;;
4148;SDS011;2088;51.032;7.082;2023-07-16T12:02:51;6.80;;;2.07;;
4148;SDS011;2088;51.032;7.082;2023-07-16T12:05:20;8.33;;;2.00;;
4148;SDS011;2088;51.032;7.082;2023-07-16T12:07:49;4.50;;;3.00;;
4148;SDS011;2088;51.032;7.082;2023-07-16T12:10:16;2.17;;;1.80;;
4148;SDS011;2088;51.032;7.082;2023-07-16T12:12:43;4.70;;;2.27;;
4148;SDS011;2088;51.032;7.082;2023-07-16T12:15:10;3.57;;;2.40;;
4148;SDS011;2088;51.032;7.082;2023-07-16T12:17:37;11.00;;;2.83;;
4148;SDS011;2088;51.032;7.082;2023-07-16T12:20:05;4.87;;;2.77;;
4148;SDS011;2088;51.032;7.082;2023-07-16T12:22:34;4.30;;;2.20;;
4148;SDS011;2088;51.032;7.082;2023-07-16T12:25:02;6.20;;;2.07;;
4148;SDS011;2088;51.032;7.082;2023-07-16T12:27:29;2.40;;;1.83;;
4148;SDS011;2088;51.032;7.082;2023-07-16T12:29:56;4.20;;;1.90;;
4148;SDS011;2088;51.032;7.082;2023-07-16T12:32:23;3.30;;;1.80;;
4148;SDS011;2088;51.032;7.082;2023-07-16T12:34:50;6.03;;;2.10;;
4148;SDS011;2088;51.032;7.082;2023-07-16T12:37:17;4.97;;;1.70;;
4148;SDS011;2088;51.032;7.082;2023-07-16T12:39:46;4.90;;;1.83;;
4148;SDS011;2088;51.032;7.082;2023-07-16T12:42:13;7.27;;;1.90;;
4148;SDS011;2088;51.032;7.082;2023-07-16T12:44:40;4.10;;;2.00;;
4148;SDS011;2088;51.032;7.082;2023-07-16T12:47:07;6.70;;;2.33;;
4148;SDS011;2088;51.032;7.082;2023-07-16T12:49:34;5.20;;;2.43;;
4148;SDS011;2088;51.032;7.082;2023-07-16T12:52:01;11.83;;;2.70;;
4148;SDS011;2088;51.032;7.082;2023-07-16T12:54:28;2.13;;;1.77;;
4148;SDS011;2088;51.032;7.082;2023-07-16T12:56:57;4.30;;;2.50;;
4148;SDS011;2088;51.032;7.082;2023-07-16T12:59:24;4.33;;;2.27;;
4148;SDS011;2088;51.032;7.082;2023-07-16T13:01:51;5.10;;;2.40;;
4148;SDS011;2088;51.032;7.082;2023-07-16T13:04:18;4.50;;;1.97;;
4148;SDS011;2088;51.032;7.082;2023-07-16T13:06:45;2.87;;;1.73;;
4148;SDS011;2088;51.032;7.082;2023-07-16T13:09:13;12.23;;;2.27;;
4148;SDS011;2088;51.032;7.082;2023-07-16T13:11:41;4.57;;;2.07;;
4148;SDS011;2088;51.032;7.082;2023-07-16T13:14:10;4.30;;;2.47;;
4148;SDS011;2088;51.032;7.082;2023-07-16T13:16:37;3.77;;;2.03;;
4148;SDS011;2088;51.032;7.082;2023-07-16T13:19:04;7.20;;;2.83;;
4148;SDS011;2088;51.032;7.082;2023-07-16T13:21:31;4.43;;;2.10;;
4148;SDS011;2088;51.032;7.082;2023-07-16T13:23:58;2.73;;;2.10;;
4148;SDS011;2088;51.032;7.082;2023-07-16T13:26:25;3.10;;;2.03;;
4148;SDS011;2088;51.032;7.082;2023-07-16T13:28:53;6.67;;;2.63;;
4148;SDS011;2088;51.032;7.082;2023-07-16T13:31:21;2.87;;;1.70;;
4148;SDS011;2088;51.032;7.082;2023-07-16T13:33:48;4.70;;;2.23;;
4148;SDS011;2088;51.032;7.082;2023-07-16T13:36:15;4.90;;;2.60;;
4148;SDS011;2088;51.032;7.082;2023-07-16T13:38:42;6.30;;;2.03;;
4148;SDS011;2088;51.032;7.082;2023-07-16T13:41:11;4.03;;;2.37;;
4148;SDS011;2088;51.032;7.082;2023-07-16T13:43:38;4.73;;;2.73;;
4148;SDS011;2088;51.032;7.082;2023-07-16T13:46:05;10.90;;;2.03;;
4148;SDS011;2088;51.032;7.082;2023-07-16T13:48:33;3.47;;;2.10;;
4148;SDS011;2088;51.032;7.082;2023-07-16T13:51:01;4.30;;;2.30;;
4148;SDS011;2088;51.032;7.082;2023-07-16T13:53:28;4.67;;;1.93;;
4148;SDS011;2088;51.032;7.082;2023-07-16T13:55:55;7.33;;;2.53;;
4148;SDS011;2088;51.032;7.082;2023-07-16T13:58:22;5.80;;;2.90;;
4148;SDS011;2088;51.032;7.082;2023-07-16T14:00:49;9.40;;;2.00;;
4148;SDS011;2088;51.032;7.082;2023-07-16T14:03:16;4.07;;;2.53;;
4148;SDS011;2088;51.032;7.082;2023-07-16T14:05:45;3.17;;;2.10;;
4148;SDS011;2088;51.032;7.082;2023-07-16T14:08:12;5.53;;;2.03;;
4148;SDS011;2088;51.032;7.082;2023-07-16T14:10:39;5.90;;;2.40;;
4148;SDS011;2088;51.032;7.082;2023-07-16T14:13:06;2.30;;;1.73;;
4148;SDS011;2088;51.032;7.082;2023-07-16T14:15:34;2.40;;;1.90;;
4148;SDS011;2088;51.032;7.082;2023-07-16T14:18:01;4.87;;;2.27;;
4148;SDS011;2088;51.032;7.082;2023-07-16T14:20:28;5.00;;;2.40;;
4148;SDS011;2088;51.032;7.082;2023-07-16T14:22:57;3.90;;;2.10;;
4148;SDS011;2088;51.032;7.082;2023-07-16T14:25:25;4.03;;;1.97;;
4148;SDS011;2088;51.032;7.082;2023-07-16T14:27:52;3.10;;;2.00;;
4148;SDS011;2088;51.032;7.082;2023-07-16T14:30:19;2.93;;;1.90;;
4148;SDS011;2088;51.032;7.082;2023-07-16T14:32:46;4.27;;;2.03;;
4148;SDS011;2088;51.032;7.082;2023-07-16T14:35:13;4.10;;;1.90;;
4148;SDS011;2088;51.032;7.082;2023-07-16T14:37:41;2.50;;;2.20;;
4148;SDS011;2088;51.032;7.082;2023-07-16T14:40:10;3.80;;;1.67;;
4148;SDS011;2088;51.032;7.082;2023-07-16T14:42:37;3.80;;;1.90;;
4148;SDS011;2088;51.032;7.082;2023-07-16T14:45:05;2.33;;;2.07;;
4148;SDS011;2088;51.032;7.082;2023-07-16T14:47:32;3.93;;;2.10;;
4148;SDS011;2088;51.032;7.082;2023-07-16T14:50:00;3.97;;;2.07;;
4148;SDS011;2088;51.032;7.082;2023-07-16T14:52:27;3.57;;;1.67;;
4148;SDS011;2088;51.032;7.082;2023-07-16T14:54:54;5.37;;;2.30;;
4148;SDS011;2088;51.032;7.082;2023-07-16T14:57:22;4.07;;;1.63;;
4148;SDS011;2088;51.032;7.082;2023-07-16T14:59:50;3.37;;;1.20;;
4148;SDS011;2088;51.032;7.082;2023-07-16T15:02:17;2.10;;;1.77;;
4148;SDS011;2088;51.032;7.082;2023-07-16T15:04:44;8.23;;;2.20;;
4148;SDS011;2088;51.032;7.082;2023-07-16T15:07:11;5.70;;;1.80;;
4148;SDS011;2088;51.032;7.082;2023-07-16T15:09:38;4.20;;;1.80;;
4148;SDS011;2088;51.032;7.082;2023-07-16T15:12:05;4.37;;;2.10;;
4148;SDS011;2088;51.032;7.082;2023-07-16T15:14:34;2.90;;;1.73;;
4148;SDS011;2088;51.032;7.082;2023-07-16T15:17:01;4.87;;;2.10;;